Time;durP1;ratioP1;P1;durP2;ratioP2;P2;SDS_P1;SDS_P2;PMS_P1;PMS_P2;Temp;Humidity;BMP_temperature;BMP_pressure;BME280_temperature;BME280_humidity;BME280_pressure;Samples;Min_cycle;Max_cycle;Signal;HPM_P1;HPM_P2
2023/01/12 00:02:04;;;;;;;4.30;1.70;;;;;;;;;;4931964;29;20440;-66
2023/01/12 00:04:30;;;;;;;9.70;1.57;;;;;;;;;;4931884;29;20832;-67
2023/01/12 00:06:57;;;;;;;5.63;1.40;;;;;;;;;;4932079;29;20510;-66
2023/01/12 00:09:23;;;;;;;3.60;1.63;;;;;;;;;;4932507;29;20840;-66
2023/01/12 00:11:49;;;;;;;4.73;1.60;;;;;;;;;;4914239;29;20541;-66
2023/01/12 00:14:15;;;;;;;3.20;1.40;;;;;;;;;;4912910;29;20496;-66
2023/01/12 00:16:41;;;;;;;14.70;2.40;;;;;;;;;;4932311;29;20803;-66
2023/01/12 00:19:10;;;;;;;8.77;1.77;;;;;;;;;;4932214;29;20599;-66
2023/01/12 00:24:15;;;;;;;4.93;1.70;;;;;;;;;;4931761;29;20790;-66
2023/01/12 00:26:41;;;;;;;4.40;2.37;;;;;;;;;;4932105;29;20494;-66
2023/01/12 00:29:07;;;;;;;8.83;1.80;;;;;;;;;;4932053;29;20447;-66
2023/01/12 00:31:33;;;;;;;2.43;1.47;;;;;;;;;;4932145;29;20518;-66
2023/01/12 00:33:59;;;;;;;7.03;1.70;;;;;;;;;;4932003;29;20428;-66
2023/01/12 00:36:25;;;;;;;5.00;1.90;;;;;;;;;;4932586;29;20437;-66
2023/01/12 00:38:51;;;;;;;4.90;1.00;;;;;;;;;;4933047;29;20956;-66
2023/01/12 00:45:20;;;;;;;4.80;1.70;;;;;;;;;;4933296;29;20793;-66
2023/01/12 00:46:48;;;;;;;7.93;3.07;;;;;;;;;;4936884;29;20502;-66
2023/01/12 00:49:14;;;;;;;3.13;1.93;;;;;;;;;;4935505;29;20439;-67
2023/01/12 00:51:40;;;;;;;3.43;1.37;;;;;;;;;;4935687;29;20455;-66
2023/01/12 00:54:07;;;;;;;7.63;1.83;;;;;;;;;;4934629;29;21044;-66
2023/01/12 00:56:33;;;;;;;10.50;1.73;;;;;;;;;;4935009;29;20454;-66
2023/01/12 00:58:59;;;;;;;8.47;1.80;;;;;;;;;;4917711;29;20431;-66
2023/01/12 01:01:25;;;;;;;2.97;1.13;;;;;;;;;;4935052;29;20435;-66
2023/01/12 01:03:51;;;;;;;5.67;2.20;;;;;;;;;;4934939;29;20962;-66
2023/01/12 01:06:17;;;;;;;7.93;1.87;;;;;;;;;;4932588;29;20554;-66
2023/01/12 01:08:43;;;;;;;3.70;1.50;;;;;;;;;;4933902;29;20439;-66
2023/01/12 01:11:10;;;;;;;10.27;1.50;;;;;;;;;;4935555;29;20936;-66
2023/01/12 01:13:42;;;;;;;3.90;1.57;;;;;;;;;;4934978;29;20931;-66
2023/01/12 01:16:09;;;;;;;6.10;2.40;;;;;;;;;;4935012;29;20913;-66
2023/01/12 01:18:35;;;;;;;4.00;1.67;;;;;;;;;;4935263;29;20947;-67
2023/01/12 01:21:01;;;;;;;9.70;1.50;;;;;;;;;;4934908;29;20439;-66
2023/01/12 01:23:27;;;;;;;11.90;1.57;;;;;;;;;;4935095;29;20553;-66
2023/01/12 01:25:54;;;;;;;3.87;1.73;;;;;;;;;;4934856;29;21023;-66
2023/01/12 01:28:20;;;;;;;6.23;1.70;;;;;;;;;;4935156;29;20465;-66
2023/01/12 01:30:46;;;;;;;2.83;1.33;;;;;;;;;;4934953;29;20439;-66
2023/01/12 01:33:12;;;;;;;8.50;1.83;;;;;;;;;;4934867;29;20451;-65
2023/01/12 01:35:38;;;;;;;3.93;1.13;;;;;;;;;;4934692;29;20412;-66
2023/01/12 01:38:05;;;;;;;15.70;2.23;;;;;;;;;;4934478;29;20523;-66
2023/01/12 01:40:31;;;;;;;7.97;1.90;;;;;;;;;;4935706;29;20434;-65
2023/01/12 01:42:57;;;;;;;2.00;1.90;;;;;;;;;;4934367;29;20446;-66
2023/01/12 01:45:23;;;;;;;3.60;1.10;;;;;;;;;;4934332;29;20522;-66
2023/01/12 01:47:51;;;;;;;3.97;1.80;;;;;;;;;;4934296;29;20452;-65
2023/01/12 01:50:20;;;;;;;3.30;1.40;;;;;;;;;;4934644;29;20451;-66
2023/01/12 01:52:50;;;;;;;5.00;1.67;;;;;;;;;;4934338;29;20432;-66
2023/01/12 01:55:19;;;;;;;12.67;2.30;;;;;;;;;;4934389;29;20613;-65
2023/01/12 01:57:47;;;;;;;8.50;1.90;;;;;;;;;;4934023;29;20435;-66
2023/01/12 02:00:13;;;;;;;7.80;1.50;;;;;;;;;;4934943;29;20969;-65
2023/01/12 02:02:41;;;;;;;4.83;1.67;;;;;;;;;;4934380;29;20443;-66
2023/01/12 02:05:07;;;;;;;13.07;1.73;;;;;;;;;;4934088;29;20786;-66
2023/01/12 02:07:33;;;;;;;5.50;1.57;;;;;;;;;;4934194;29;20550;-66
2023/01/12 02:09:59;;;;;;;6.37;1.57;;;;;;;;;;4933791;29;20443;-65
2023/01/12 02:18:11;;;;;;;8.03;1.90;;;;;;;;;;4933821;29;20445;-65
2023/01/12 02:20:47;;;;;;;6.27;2.07;;;;;;;;;;4934352;29;20541;-66
2023/01/12 02:23:22;;;;;;;7.13;1.10;;;;;;;;;;4934267;29;20760;-66
2023/01/12 02:26:10;;;;;;;6.77;2.07;;;;;;;;;;4933207;29;20482;-65
2023/01/12 02:28:53;;;;;;;6.77;1.33;;;;;;;;;;4933161;29;20444;-67
2023/01/12 02:31:34;;;;;;;5.40;1.37;;;;;;;;;;4933873;29;20517;-65
2023/01/12 02:34:00;;;;;;;11.50;4.40;;;;;;;;;;4933215;29;20448;-66
2023/01/12 02:36:26;;;;;;;4.90;1.50;;;;;;;;;;4933245;29;20490;-65
2023/01/12 02:39:14;;;;;;;10.50;2.73;;;;;;;;;;4934121;29;20482;-66
2023/01/12 02:44:36;;;;;;;8.30;1.70;;;;;;;;;;4933276;29;20804;-66
2023/01/12 02:47:04;;;;;;;6.13;1.30;;;;;;;;;;4933600;29;20509;-65
2023/01/12 02:49:34;;;;;;;8.60;1.63;;;;;;;;;;4933809;29;21019;-66
2023/01/12 02:52:03;;;;;;;13.43;1.67;;;;;;;;;;4933412;29;20431;-66
2023/01/12 02:54:30;;;;;;;3.00;1.27;;;;;;;;;;4933025;29;20528;-66
2023/01/12 02:56:59;;;;;;;3.70;1.57;;;;;;;;;;4933603;29;20420;-66
2023/01/12 02:59:25;;;;;;;4.27;1.57;;;;;;;;;;4915890;29;20440;-65
2023/01/12 03:01:53;;;;;;;7.93;1.90;;;;;;;;;;4932683;29;20503;-65
2023/01/12 03:04:19;;;;;;;7.17;1.53;;;;;;;;;;4931899;29;20490;-66
2023/01/12 03:07:05;;;;;;;20.57;1.73;;;;;;;;;;4933501;29;20597;-66
2023/01/12 03:09:37;;;;;;;2.73;1.40;;;;;;;;;;4933239;29;20498;-65
2023/01/12 03:12:05;;;;;;;4.93;1.57;;;;;;;;;;4932691;29;20420;-66
2023/01/12 03:14:33;;;;;;;11.90;1.30;;;;;;;;;;4915130;29;21010;-65
2023/01/12 03:16:59;;;;;;;2.50;1.13;;;;;;;;;;4933864;29;20449;-66
2023/01/12 03:19:28;;;;;;;5.47;2.63;;;;;;;;;;4933257;29;20510;-66
2023/01/12 03:21:55;;;;;;;5.70;1.60;;;;;;;;;;4932569;29;20432;-65
2023/01/12 03:24:25;;;;;;;4.70;1.70;;;;;;;;;;4932511;29;20443;-66
2023/01/12 03:26:54;;;;;;;12.50;1.93;;;;;;;;;;4915395;29;20483;-66
2023/01/12 03:29:33;;;;;;;4.97;1.60;;;;;;;;;;4932487;29;20933;-66
2023/01/12 03:31:59;;;;;;;5.70;1.90;;;;;;;;;;4932457;29;20751;-66
2023/01/12 03:34:25;;;;;;;3.33;1.10;;;;;;;;;;4932162;29;20483;-65
2023/01/12 03:37:06;;;;;;;4.60;1.60;;;;;;;;;;4932834;29;20431;-66
2023/01/12 03:39:37;;;;;;;8.63;1.90;;;;;;;;;;4932538;29;20510;-65
2023/01/12 03:42:10;;;;;;;6.47;1.80;;;;;;;;;;4932077;29;20499;-66
2023/01/12 03:44:39;;;;;;;7.97;1.10;;;;;;;;;;4932126;29;20432;-66
2023/01/12 03:47:11;;;;;;;4.60;1.23;;;;;;;;;;4932589;29;20856;-65
2023/01/12 03:49:37;;;;;;;6.07;1.67;;;;;;;;;;4932457;29;20420;-66
2023/01/12 03:52:04;;;;;;;4.80;2.13;;;;;;;;;;4932471;29;20547;-66
2023/01/12 03:54:31;;;;;;;6.10;2.30;;;;;;;;;;4932246;29;20420;-65
2023/01/12 03:56:58;;;;;;;7.10;1.93;;;;;;;;;;4931313;29;20466;-65
2023/01/12 03:59:24;;;;;;;6.90;1.33;;;;;;;;;;4932186;29;20443;-66
2023/01/12 04:01:50;;;;;;;4.80;1.10;;;;;;;;;;4933023;29;20447;-65
2023/01/12 04:04:16;;;;;;;12.63;1.97;;;;;;;;;;4931660;29;20436;-65
2023/01/12 04:06:42;;;;;;;3.70;1.10;;;;;;;;;;4932277;29;20546;-66
2023/01/12 04:09:08;;;;;;;6.50;1.97;;;;;;;;;;4932390;29;20436;-66
2023/01/12 04:12:19;;;;;;;3.10;1.17;;;;;;;;;;4931915;29;20448;-66
2023/01/12 04:14:20;;;;;;;4.83;1.70;;;;;;;;;;4918971;29;20878;-65
2023/01/12 04:16:46;;;;;;;4.13;1.97;;;;;;;;;;4934386;29;20535;-65
2023/01/12 04:19:12;;;;;;;9.23;2.37;;;;;;;;;;4936204;29;20431;-65
2023/01/12 04:24:23;;;;;;;12.17;1.60;;;;;;;;;;4937195;29;20443;-65
2023/01/12 04:26:49;;;;;;;6.10;1.30;;;;;;;;;;4935107;29;20491;-65
2023/01/12 04:29:15;;;;;;;8.57;1.67;;;;;;;;;;4936115;29;20515;-66
2023/01/12 04:31:41;;;;;;;3.60;1.80;;;;;;;;;;4936051;29;20527;-65
2023/01/12 04:34:07;;;;;;;3.70;1.50;;;;;;;;;;4935462;29;20943;-66
2023/01/12 04:36:33;;;;;;;3.80;1.33;;;;;;;;;;4935932;29;20436;-65
2023/01/12 04:38:59;;;;;;;11.00;1.17;;;;;;;;;;4935822;29;20435;-65
2023/01/12 04:41:25;;;;;;;9.93;1.80;;;;;;;;;;4935471;29;20853;-66
2023/01/12 04:43:51;;;;;;;2.33;1.20;;;;;;;;;;4936115;29;20902;-65
2023/01/12 04:46:17;;;;;;;9.30;2.13;;;;;;;;;;4934532;29;21147;-65
2023/01/12 04:48:44;;;;;;;7.67;1.53;;;;;;;;;;4935224;29;20455;-65
2023/01/12 04:51:10;;;;;;;7.43;2.20;;;;;;;;;;4935926;29;20455;-66
2023/01/12 04:53:36;;;;;;;5.50;1.77;;;;;;;;;;4935761;29;20877;-65
2023/01/12 04:56:03;;;;;;;7.83;1.10;;;;;;;;;;4935480;29;20440;-66
2023/01/12 04:58:29;;;;;;;4.57;2.20;;;;;;;;;;4935549;29;20980;-66
2023/01/12 05:00:55;;;;;;;5.20;1.43;;;;;;;;;;4935241;29;20428;-65
2023/01/12 05:03:21;;;;;;;8.13;1.83;;;;;;;;;;4935315;29;20438;-66
2023/01/12 05:05:47;;;;;;;3.77;1.43;;;;;;;;;;4934198;29;21666;-65
2023/01/12 05:10:59;;;;;;;9.10;2.80;;;;;;;;;;4935154;29;20482;-65
2023/01/12 05:13:26;;;;;;;3.57;1.00;;;;;;;;;;4935342;29;20448;-65
2023/01/12 05:15:52;;;;;;;4.73;1.77;;;;;;;;;;4917514;29;20435;-65
2023/01/12 05:18:18;;;;;;;5.90;1.83;;;;;;;;;;4935462;29;20794;-65
2023/01/12 05:20:44;;;;;;;8.03;1.60;;;;;;;;;;4934699;29;20514;-66
2023/01/12 05:23:10;;;;;;;7.00;1.93;;;;;;;;;;4935795;29;20490;-66
2023/01/12 05:25:36;;;;;;;6.77;1.73;;;;;;;;;;4934206;29;20498;-66
2023/01/12 05:28:02;;;;;;;4.53;2.17;;;;;;;;;;4932998;29;20924;-66
2023/01/12 05:30:29;;;;;;;1.77;1.67;;;;;;;;;;4936281;29;20800;-66
2023/01/12 05:32:55;;;;;;;5.13;1.67;;;;;;;;;;4917746;29;20467;-65
2023/01/12 05:35:21;;;;;;;5.57;2.10;;;;;;;;;;4917018;29;20830;-65
2023/01/12 05:37:47;;;;;;;5.37;1.60;;;;;;;;;;4933672;29;20941;-66
2023/01/12 05:40:14;;;;;;;6.43;2.10;;;;;;;;;;4935014;29;20439;-66
2023/01/12 05:45:25;;;;;;;6.57;1.40;;;;;;;;;;4934986;29;20792;-65
2023/01/12 05:48:00;;;;;;;7.90;1.50;;;;;;;;;;4934197;29;20482;-65
2023/01/12 05:50:27;;;;;;;4.03;1.77;;;;;;;;;;4917225;29;20428;-65
2023/01/12 05:52:53;;;;;;;3.53;1.07;;;;;;;;;;4917513;29;20526;-65
2023/01/12 05:55:19;;;;;;;4.60;1.40;;;;;;;;;;4933939;29;20587;-65
2023/01/12 05:57:45;;;;;;;7.13;1.37;;;;;;;;;;4933783;29;20494;-66
2023/01/12 06:00:11;;;;;;;6.73;1.13;;;;;;;;;;4934511;29;20944;-66
2023/01/12 06:02:37;;;;;;;5.70;1.63;;;;;;;;;;4934209;29;20436;-66
2023/01/12 06:05:07;;;;;;;7.27;1.90;;;;;;;;;;4934365;29;20502;-65
2023/01/12 06:07:33;;;;;;;4.97;1.50;;;;;;;;;;4933962;29;20499;-65
2023/01/12 06:09:59;;;;;;;4.73;1.70;;;;;;;;;;4915889;29;20512;-65
2023/01/12 06:15:09;;;;;;;7.83;1.97;;;;;;;;;;4933976;29;20447;-66
2023/01/12 06:17:35;;;;;;;4.63;0.93;;;;;;;;;;4933640;29;20436;-66
2023/01/12 06:20:01;;;;;;;1.93;1.47;;;;;;;;;;4933611;29;20984;-65
2023/01/12 06:22:27;;;;;;;3.73;1.47;;;;;;;;;;4933786;29;20432;-66
2023/01/12 06:24:53;;;;;;;5.37;1.83;;;;;;;;;;4933690;29;20533;-65
2023/01/12 06:27:19;;;;;;;3.13;1.40;;;;;;;;;;4931261;29;21046;-65
2023/01/12 06:29:45;;;;;;;2.10;1.23;;;;;;;;;;4933214;29;20494;-65
2023/01/12 06:32:11;;;;;;;3.87;0.93;;;;;;;;;;4933237;29;20534;-66
2023/01/12 06:34:37;;;;;;;2.77;1.13;;;;;;;;;;4916072;29;20490;-65
2023/01/12 06:37:06;;;;;;;5.90;1.70;;;;;;;;;;4933519;29;20455;-66
2023/01/12 06:39:32;;;;;;;2.00;1.07;;;;;;;;;;4932456;29;20436;-66
2023/01/12 06:44:43;;;;;;;6.83;1.30;;;;;;;;;;4933618;29;20438;-66
2023/01/12 06:47:09;;;;;;;1.90;1.17;;;;;;;;;;4933454;29;20483;-66
2023/01/12 06:49:35;;;;;;;2.20;1.87;;;;;;;;;;4932940;29;20810;-66
2023/01/12 06:52:01;;;;;;;12.90;1.53;;;;;;;;;;4933415;29;20474;-66
2023/01/12 06:54:27;;;;;;;7.30;1.37;;;;;;;;;;4933063;29;20495;-66
2023/01/12 06:56:54;;;;;;;11.33;2.10;;;;;;;;;;4916128;29;20483;-65
2023/01/12 06:59:20;;;;;;;4.43;1.90;;;;;;;;;;4933342;29;20494;-66
2023/01/12 07:01:46;;;;;;;4.13;0.90;;;;;;;;;;4931862;29;20436;-66
2023/01/12 07:04:12;;;;;;;2.60;1.83;;;;;;;;;;4932637;29;20432;-65
2023/01/12 07:06:38;;;;;;;5.47;1.80;;;;;;;;;;4932690;29;20495;-66
2023/01/12 07:09:05;;;;;;;3.70;1.40;;;;;;;;;;4918034;29;20432;-66
2023/01/12 07:11:31;;;;;;;2.30;1.17;;;;;;;;;;4916366;29;20470;-66
2023/01/12 07:13:58;;;;;;;3.03;0.97;;;;;;;;;;4916095;29;20865;-66
2023/01/12 07:16:24;;;;;;;4.13;1.47;;;;;;;;;;4932430;29;20472;-65
2023/01/12 07:18:50;;;;;;;2.97;1.33;;;;;;;;;;4932958;29;20479;-70
2023/01/12 07:21:18;;;;;;;5.93;1.93;;;;;;;;;;4931491;29;20444;-65
2023/01/12 07:23:44;;;;;;;3.70;0.80;;;;;;;;;;4934341;29;20464;-66
2023/01/12 07:26:10;;;;;;;4.50;1.17;;;;;;;;;;4932248;29;20467;-66
2023/01/12 07:28:37;;;;;;;3.27;1.20;;;;;;;;;;4931491;29;20448;-66
2023/01/12 07:31:04;;;;;;;2.80;1.73;;;;;;;;;;4932705;29;20435;-69
2023/01/12 07:33:30;;;;;;;8.87;1.37;;;;;;;;;;4932954;29;20813;-66
2023/01/12 07:35:59;;;;;;;5.87;1.30;;;;;;;;;;4932385;29;20430;-66
2023/01/12 07:38:26;;;;;;;2.57;1.10;;;;;;;;;;4932785;29;20481;-66
2023/01/12 07:40:52;;;;;;;0.83;0.83;;;;;;;;;;4933447;29;20519;-66
2023/01/12 07:43:18;;;;;;;3.73;2.60;;;;;;;;;;4934094;29;20546;-66
2023/01/12 07:45:44;;;;;;;5.57;1.50;;;;;;;;;;4915109;29;20465;-66
2023/01/12 07:48:10;;;;;;;1.80;1.00;;;;;;;;;;4933142;29;20458;-66
2023/01/12 07:50:37;;;;;;;5.23;1.57;;;;;;;;;;4933805;29;20428;-66
2023/01/12 07:53:03;;;;;;;12.30;1.50;;;;;;;;;;4932763;29;20447;-66
2023/01/12 07:55:30;;;;;;;2.83;0.83;;;;;;;;;;4931975;29;20438;-65
2023/01/12 07:58:05;;;;;;;3.80;1.63;;;;;;;;;;4932656;29;20440;-66
2023/01/12 08:00:31;;;;;;;3.03;1.00;;;;;;;;;;4929438;29;20487;-64
2023/01/12 08:03:08;;;;;;;1.23;0.90;;;;;;;;;;4932096;29;20518;-66
2023/01/12 08:05:34;;;;;;;2.53;0.93;;;;;;;;;;4931375;29;20447;-66
2023/01/12 08:08:00;;;;;;;3.57;1.20;;;;;;;;;;4932132;29;20488;-65
2023/01/12 08:10:27;;;;;;;11.60;1.80;;;;;;;;;;4914214;29;20436;-66
2023/01/12 08:12:53;;;;;;;5.93;1.63;;;;;;;;;;4931170;29;20436;-66
2023/01/12 08:15:19;;;;;;;1.33;1.23;;;;;;;;;;4905169;29;20538;-66
2023/01/12 08:17:48;;;;;;;2.03;1.30;;;;;;;;;;4929654;29;20439;-66
2023/01/12 08:20:19;;;;;;;1.57;1.03;;;;;;;;;;4913547;29;20469;-67
2023/01/12 08:22:47;;;;;;;4.07;1.30;;;;;;;;;;4914409;29;20941;-66
2023/01/12 08:25:16;;;;;;;2.70;1.33;;;;;;;;;;4912924;29;20432;-66
2023/01/12 08:27:45;;;;;;;2.47;0.80;;;;;;;;;;4931974;29;20479;-66
2023/01/12 08:30:13;;;;;;;5.30;1.70;;;;;;;;;;4932347;29;20450;-65
2023/01/12 08:32:39;;;;;;;3.90;1.07;;;;;;;;;;4933990;29;20471;-66
2023/01/12 08:35:05;;;;;;;1.50;1.20;;;;;;;;;;4934167;29;20490;-66
2023/01/12 08:37:32;;;;;;;3.27;0.70;;;;;;;;;;4934775;29;20463;-66
2023/01/12 08:40:01;;;;;;;13.37;1.90;;;;;;;;;;4932180;29;20498;-66
2023/01/12 08:42:27;;;;;;;4.57;2.33;;;;;;;;;;4933994;29;20526;-65
2023/01/12 08:44:53;;;;;;;6.40;1.37;;;;;;;;;;4931805;29;20535;-66
2023/01/12 08:47:21;;;;;;;2.00;0.63;;;;;;;;;;4932378;29;20521;-65
2023/01/12 08:49:48;;;;;;;3.23;0.70;;;;;;;;;;4933759;29;21292;-65
2023/01/12 08:52:15;;;;;;;3.70;1.30;;;;;;;;;;4934280;29;20479;-66
2023/01/12 08:54:41;;;;;;;2.30;0.77;;;;;;;;;;4931571;29;20496;-66
2023/01/12 08:57:07;;;;;;;5.47;1.20;;;;;;;;;;4932369;29;20439;-65
2023/01/12 08:59:33;;;;;;;6.60;0.93;;;;;;;;;;4932046;29;20963;-66
2023/01/12 09:01:59;;;;;;;1.63;1.00;;;;;;;;;;4931542;29;20467;-65
2023/01/12 09:04:25;;;;;;;2.20;0.80;;;;;;;;;;4932887;29;20840;-66
2023/01/12 09:06:54;;;;;;;1.23;1.10;;;;;;;;;;4936202;29;20503;-66
2023/01/12 09:09:21;;;;;;;1.33;1.13;;;;;;;;;;4932422;29;20445;-66
2023/01/12 09:11:47;;;;;;;1.97;0.70;;;;;;;;;;4933904;29;20436;-66
2023/01/12 09:14:16;;;;;;;1.43;0.73;;;;;;;;;;4933241;29;20423;-66
2023/01/12 09:16:43;;;;;;;2.00;0.70;;;;;;;;;;4917105;29;20811;-65
2023/01/12 09:19:09;;;;;;;7.63;1.03;;;;;;;;;;4933699;29;20920;-66
2023/01/12 09:21:37;;;;;;;7.67;1.77;;;;;;;;;;4935685;29;20444;-65
2023/01/12 09:24:03;;;;;;;5.13;2.00;;;;;;;;;;4933560;29;20940;-65
2023/01/12 09:26:30;;;;;;;2.20;0.97;;;;;;;;;;4934132;29;20471;-66
2023/01/12 09:29:00;;;;;;;0.67;0.60;;;;;;;;;;4934328;29;20435;-65
2023/01/12 09:31:27;;;;;;;0.60;0.50;;;;;;;;;;4934333;29;20462;-65
2023/01/12 09:33:53;;;;;;;2.40;1.43;;;;;;;;;;4933624;29;20463;-64
2023/01/12 09:36:26;;;;;;;4.60;1.10;;;;;;;;;;4917040;29;20961;-63
2023/01/12 09:38:52;;;;;;;6.40;2.90;;;;;;;;;;4933715;29;20444;-64
2023/01/12 09:46:57;;;;;;;1.47;0.90;;;;;;;;;;4916191;29;20440;-66
2023/01/12 09:47:29;;;;;;;3.47;0.67;;;;;;;;;;4934044;29;20550;-66
2023/01/12 09:49:58;;;;;;;2.10;0.97;;;;;;;;;;4917698;29;20440;-66
2023/01/12 09:52:30;;;;;;;2.80;1.40;;;;;;;;;;4933972;29;20870;-67
2023/01/12 09:54:57;;;;;;;3.03;1.63;;;;;;;;;;4933594;29;20424;-67
2023/01/12 09:57:43;;;;;;;2.53;1.07;;;;;;;;;;4933551;29;20447;-66
2023/01/12 10:00:11;;;;;;;0.70;0.70;;;;;;;;;;4932812;29;20504;-66
2023/01/12 10:02:40;;;;;;;4.70;1.00;;;;;;;;;;4932591;29;20979;-66
2023/01/12 10:05:07;;;;;;;4.50;1.20;;;;;;;;;;4933419;29;20468;-66
2023/01/12 10:07:34;;;;;;;2.93;1.10;;;;;;;;;;4933306;29;20999;-66
2023/01/12 10:10:00;;;;;;;4.00;1.43;;;;;;;;;;4934019;29;20851;-66
2023/01/12 10:12:32;;;;;;;2.70;1.03;;;;;;;;;;4933779;29;20439;-66
2023/01/12 10:15:13;;;;;;;2.40;0.90;;;;;;;;;;4915708;29;20435;-66
2023/01/12 10:18:05;;;;;;;3.23;1.00;;;;;;;;;;4934566;29;20435;-66
2023/01/12 10:20:42;;;;;;;0.80;0.80;;;;;;;;;;4932441;29;20436;-66
2023/01/12 10:23:08;;;;;;;2.40;0.57;;;;;;;;;;4933900;29;20526;-66
2023/01/12 10:25:34;;;;;;;1.13;0.60;;;;;;;;;;4915921;29;20578;-66
2023/01/12 10:28:07;;;;;;;1.13;0.90;;;;;;;;;;4933707;29;20571;-66
2023/01/12 10:30:34;;;;;;;3.83;1.00;;;;;;;;;;4933560;29;20440;-66
2023/01/12 10:33:09;;;;;;;3.70;1.00;;;;;;;;;;4934001;29;21011;-67
2023/01/12 10:35:35;;;;;;;1.20;1.10;;;;;;;;;;4916289;29;20426;-66
2023/01/12 10:38:12;;;;;;;1.93;0.70;;;;;;;;;;4933805;29;20434;-67
2023/01/12 10:40:38;;;;;;;12.20;1.20;;;;;;;;;;4916443;29;20436;-66
2023/01/12 10:43:22;;;;;;;1.07;0.97;;;;;;;;;;4932232;29;20479;-65
2023/01/12 10:45:54;;;;;;;3.60;1.03;;;;;;;;;;4933088;29;20450;-65
2023/01/12 10:48:21;;;;;;;2.20;1.10;;;;;;;;;;4933649;29;20524;-66
2023/01/12 10:50:58;;;;;;;3.77;1.13;;;;;;;;;;4933494;29;20428;-66
2023/01/12 10:53:28;;;;;;;2.53;1.17;;;;;;;;;;4933280;29;20443;-67
2023/01/12 10:55:54;;;;;;;3.07;1.43;;;;;;;;;;4931976;29;20440;-66
2023/01/12 10:58:26;;;;;;;6.43;1.60;;;;;;;;;;4916040;29;20471;-65
2023/01/12 11:00:52;;;;;;;3.50;2.10;;;;;;;;;;4933065;29;20416;-66
2023/01/12 11:03:48;;;;;;;3.73;1.50;;;;;;;;;;4933135;29;20522;-66
2023/01/12 11:06:22;;;;;;;5.23;1.30;;;;;;;;;;4924829;29;20581;-65
2023/01/12 11:08:48;;;;;;;5.50;2.70;;;;;;;;;;4932874;29;20443;-66
2023/01/12 11:11:20;;;;;;;4.20;3.47;;;;;;;;;;4931771;29;20487;-66
2023/01/12 11:13:46;;;;;;;6.90;4.53;;;;;;;;;;4915719;29;20427;-66
2023/01/12 11:16:26;;;;;;;14.43;5.13;;;;;;;;;;4933218;29;20459;-66
2023/01/12 11:18:55;;;;;;;22.17;13.17;;;;;;;;;;4931685;29;20490;-66
2023/01/12 11:21:24;;;;;;;10.53;8.23;;;;;;;;;;4932553;29;20459;-66
2023/01/12 11:24:09;;;;;;;14.10;8.63;;;;;;;;;;4932465;29;20450;-66
2023/01/12 11:26:43;;;;;;;5.90;5.37;;;;;;;;;;4932325;29;20479;-66
2023/01/12 11:29:21;;;;;;;6.33;5.30;;;;;;;;;;4932879;29;20432;-66
2023/01/12 11:31:49;;;;;;;7.30;5.20;;;;;;;;;;4932207;29;20490;-65
2023/01/12 11:34:17;;;;;;;6.60;3.87;;;;;;;;;;4932004;29;20451;-66
2023/01/12 11:36:47;;;;;;;5.93;3.63;;;;;;;;;;4932983;29;20455;-66
2023/01/12 11:39:15;;;;;;;4.90;3.87;;;;;;;;;;4932822;29;20432;-66
2023/01/12 11:44:56;;;;;;;4.50;4.13;;;;;;;;;;4931895;29;20442;-65
2023/01/12 11:47:27;;;;;;;3.17;2.90;;;;;;;;;;4932627;29;20494;-66
2023/01/12 11:49:57;;;;;;;1.00;1.00;;;;;;;;;;4932750;29;20428;-66
2023/01/12 11:52:24;;;;;;;2.67;2.57;;;;;;;;;;4933335;29;20467;-65
2023/01/12 11:54:50;;;;;;;6.73;2.73;;;;;;;;;;4931876;29;20452;-66
2023/01/12 11:57:16;;;;;;;2.10;1.00;;;;;;;;;;4931630;29;20454;-66
2023/01/12 11:59:59;;;;;;;2.00;1.87;;;;;;;;;;4931963;29;20456;-67
2023/01/12 12:02:38;;;;;;;3.30;1.80;;;;;;;;;;4932382;29;20455;-66
2023/01/12 12:05:07;;;;;;;6.17;4.30;;;;;;;;;;4932026;29;20529;-65
2023/01/12 12:07:33;;;;;;;3.90;1.63;;;;;;;;;;4931909;29;20519;-67
2023/01/12 12:09:59;;;;;;;1.60;0.70;;;;;;;;;;4932116;29;20455;-65
2023/01/12 12:12:25;;;;;;;5.20;1.90;;;;;;;;;;4932177;29;20424;-66
2023/01/12 12:15:01;;;;;;;1.67;1.43;;;;;;;;;;4931899;29;20490;-65
2023/01/12 12:17:35;;;;;;;1.23;1.23;;;;;;;;;;4932754;29;20420;-66
2023/01/12 12:20:30;;;;;;;1.70;1.60;;;;;;;;;;4931990;29;20432;-65
2023/01/12 12:23:11;;;;;;;2.57;1.70;;;;;;;;;;4907440;29;20482;-67
2023/01/12 12:25:43;;;;;;;2.57;0.80;;;;;;;;;;4926719;29;20820;-66
2023/01/12 12:28:24;;;;;;;2.27;0.80;;;;;;;;;;4927502;29;20972;-66
2023/01/12 12:30:59;;;;;;;3.03;0.70;;;;;;;;;;4927102;29;20786;-65
2023/01/12 12:33:44;;;;;;;1.70;0.60;;;;;;;;;;4926987;29;20939;-67
2023/01/12 12:36:28;;;;;;;2.80;0.70;;;;;;;;;;4928201;29;20506;-66
2023/01/12 12:39:13;;;;;;;4.07;0.60;;;;;;;;;;4931191;29;20940;-66
2023/01/12 12:47:43;;;;;;;5.93;0.90;;;;;;;;;;4930881;29;20834;-66
2023/01/12 12:50:14;;;;;;;1.37;1.03;;;;;;;;;;4933487;29;20451;-66
2023/01/12 12:52:40;;;;;;;1.07;0.60;;;;;;;;;;4918343;29;20439;-66
2023/01/12 12:55:10;;;;;;;1.80;0.90;;;;;;;;;;4934749;29;20523;-66
2023/01/12 12:57:55;;;;;;;6.43;0.60;;;;;;;;;;4935291;29;20439;-67
2023/01/12 13:00:39;;;;;;;2.93;0.80;;;;;;;;;;4933343;29;20471;-67
2023/01/12 13:03:05;;;;;;;2.73;2.40;;;;;;;;;;4932649;29;22163;-65
2023/01/12 13:05:40;;;;;;;0.70;0.70;;;;;;;;;;4929865;29;20439;-66
2023/01/12 13:08:26;;;;;;;5.43;1.17;;;;;;;;;;4931779;29;20487;-66
2023/01/12 13:10:57;;;;;;;1.53;0.70;;;;;;;;;;4934510;29;20446;-66
2023/01/12 13:13:43;;;;;;;1.27;0.63;;;;;;;;;;4935144;29;20424;-66
2023/01/12 13:16:18;;;;;;;6.60;1.03;;;;;;;;;;4907476;29;20787;-66
2023/01/12 13:18:47;;;;;;;4.73;1.67;;;;;;;;;;4934614;29;20435;-66
2023/01/12 13:21:26;;;;;;;2.80;0.80;;;;;;;;;;4935086;29;20446;-66
2023/01/12 13:23:52;;;;;;;1.30;1.30;;;;;;;;;;4934385;29;21102;-66
2023/01/12 13:26:45;;;;;;;2.33;1.17;;;;;;;;;;4934537;29;20530;-65
2023/01/12 13:29:23;;;;;;;5.73;1.93;;;;;;;;;;4929149;29;20949;-66
2023/01/12 13:31:50;;;;;;;6.13;1.90;;;;;;;;;;4931012;29;20458;-66
2023/01/12 13:34:29;;;;;;;4.83;2.27;;;;;;;;;;4934537;29;20483;-66
2023/01/12 13:37:17;;;;;;;5.00;4.60;;;;;;;;;;4934944;29;20430;-66
2023/01/12 13:39:48;;;;;;;11.07;6.57;;;;;;;;;;4934545;29;20432;-66
2023/01/12 13:45:03;;;;;;;9.07;6.33;;;;;;;;;;4934666;29;20442;-66
2023/01/12 13:47:31;;;;;;;5.33;4.13;;;;;;;;;;4934477;29;20536;-66
2023/01/12 13:49:59;;;;;;;13.43;7.40;;;;;;;;;;4934300;29;20436;-66
2023/01/12 13:52:28;;;;;;;12.90;7.27;;;;;;;;;;4934854;29;20939;-66
2023/01/12 13:54:55;;;;;;;6.87;2.70;;;;;;;;;;4933518;29;20480;-65
2023/01/12 13:57:23;;;;;;;5.37;2.93;;;;;;;;;;4934380;29;20510;-65
2023/01/12 13:59:56;;;;;;;11.30;2.90;;;;;;;;;;4934436;29;20447;-66
2023/01/12 14:02:23;;;;;;;3.57;2.43;;;;;;;;;;4917151;29;20432;-65
2023/01/12 14:05:00;;;;;;;2.17;1.80;;;;;;;;;;4933567;29;20428;-65
2023/01/12 14:07:32;;;;;;;3.03;2.53;;;;;;;;;;4934014;29;20987;-65
2023/01/12 14:10:04;;;;;;;3.90;1.60;;;;;;;;;;4933003;29;20890;-65
2023/01/12 14:12:30;;;;;;;3.60;1.40;;;;;;;;;;4915560;29;20444;-65
2023/01/12 14:18:05;;;;;;;4.97;1.93;;;;;;;;;;4929282;29;21061;-65
2023/01/12 14:20:31;;;;;;;2.73;1.60;;;;;;;;;;4933796;29;20550;-65
2023/01/12 14:23:16;;;;;;;1.60;1.50;;;;;;;;;;4934109;29;20590;-65
2023/01/12 14:25:42;;;;;;;7.33;3.13;;;;;;;;;;4932895;29;20439;-65
2023/01/12 14:28:32;;;;;;;1.53;1.03;;;;;;;;;;4933531;29;20581;-65
2023/01/12 14:30:59;;;;;;;1.63;1.37;;;;;;;;;;4919816;29;20436;-65
2023/01/12 14:33:26;;;;;;;2.20;1.30;;;;;;;;;;4928886;29;20450;-65
2023/01/12 14:35:54;;;;;;;1.63;1.10;;;;;;;;;;4928678;29;20447;-66
2023/01/12 14:38:22;;;;;;;2.10;1.33;;;;;;;;;;4928709;29;20432;-66
2023/01/12 14:40:59;;;;;;;1.77;1.37;;;;;;;;;;4928400;29;20526;-66
2023/01/12 14:46:29;;;;;;;10.10;2.23;;;;;;;;;;4933086;29;20474;-66
2023/01/12 14:48:55;;;;;;;8.73;6.53;;;;;;;;;;4933678;29;20438;-66
2023/01/12 14:51:29;;;;;;;8.87;1.90;;;;;;;;;;4932821;29;20435;-66
2023/01/12 14:53:57;;;;;;;1.70;0.90;;;;;;;;;;4916037;29;20995;-66
2023/01/12 14:56:28;;;;;;;1.87;1.60;;;;;;;;;;4932905;29;20503;-66
2023/01/12 14:58:54;;;;;;;5.20;2.70;;;;;;;;;;4932157;29;20452;-66
2023/01/12 15:01:31;;;;;;;2.30;1.37;;;;;;;;;;4931149;29;20447;-66
2023/01/12 15:03:57;;;;;;;1.27;0.80;;;;;;;;;;4932535;29;20806;-66
2023/01/12 15:06:23;;;;;;;1.67;1.50;;;;;;;;;;4932803;29;20531;-65
2023/01/12 15:08:56;;;;;;;1.40;1.10;;;;;;;;;;4933179;29;20440;-65
2023/01/12 15:11:30;;;;;;;3.97;1.50;;;;;;;;;;4932341;29;20966;-65
2023/01/12 15:13:57;;;;;;;5.10;2.20;;;;;;;;;;4932499;29;20435;-65
2023/01/12 15:27:26;;;;;;;1.30;1.20;;;;;;;;;;4928878;29;20491;-65
2023/01/12 15:29:53;;;;;;;1.37;1.37;;;;;;;;;;4910150;29;20436;-65
2023/01/12 15:32:19;;;;;;;2.40;2.30;;;;;;;;;;4929550;29;20522;-65
2023/01/12 15:34:46;;;;;;;5.70;1.23;;;;;;;;;;4932216;29;20600;-65
2023/01/12 15:37:15;;;;;;;1.07;1.07;;;;;;;;;;4932801;29;20518;-65
2023/01/12 15:39:41;;;;;;;2.53;1.10;;;;;;;;;;4931970;29;20435;-65
2023/01/12 15:42:25;;;;;;;0.50;0.50;;;;;;;;;;4931399;29;20420;-65
2023/01/12 15:44:52;;;;;;;0.60;0.60;;;;;;;;;;4915128;29;20494;-66
2023/01/12 15:47:19;;;;;;;1.23;1.07;;;;;;;;;;4933539;29;20483;-65
2023/01/12 15:49:46;;;;;;;0.87;0.73;;;;;;;;;;4931906;29;20506;-65
2023/01/12 15:52:16;;;;;;;0.40;0.40;;;;;;;;;;4933119;29;20562;-65
2023/01/12 15:54:42;;;;;;;1.30;1.20;;;;;;;;;;4932059;29;20428;-65